createdAt,value
2022-08-11T00:00:53.781Z,18.47
2022-08-11T00:05:57.827Z,17.77
2022-08-11T00:11:07.396Z,18.64
2022-08-11T00:16:25.103Z,21.36
2022-08-11T00:22:01.863Z,21.61
2022-08-11T00:26:55.499Z,19.68
2022-08-11T00:32:03.192Z,18.56
2022-08-11T00:37:18.873Z,17.80
2022-08-11T00:42:55.701Z,17.27
2022-08-11T00:48:25.094Z,18.58
2022-08-11T00:53:44.103Z,21.34
2022-08-11T00:59:42.621Z,21.44
2022-08-11T01:05:08.313Z,19.36
2022-08-11T01:11:06.509Z,18.13
2022-08-11T01:16:45.684Z,17.09
2022-08-11T01:22:04.058Z,16.26
2022-08-11T01:27:32.865Z,17.12
2022-08-11T01:32:55.624Z,20.07
2022-08-11T01:38:18.695Z,20.03
2022-08-11T01:43:55.880Z,18.17
2022-08-11T01:49:29.076Z,17.05
2022-08-11T01:55:26.975Z,16.25
2022-08-11T02:00:40.551Z,15.69
2022-08-11T02:06:33.715Z,16.65
2022-08-11T02:11:39.242Z,19.85
2022-08-11T02:17:18.436Z,19.42
2022-08-11T02:24:04.225Z,17.44
2022-08-11T02:28:58.464Z,16.28
2022-08-11T02:34:28.693Z,15.63
2022-08-11T02:39:56.261Z,15.10
2022-08-11T02:45:27.226Z,16.26
2022-08-11T02:50:56.646Z,19.24
2022-08-11T02:56:44.843Z,17.99
2022-08-11T03:02:24.985Z,16.27
2022-08-11T03:07:40.494Z,15.37
2022-08-11T03:13:34.385Z,14.86
2022-08-11T03:18:59.822Z,16.34
2022-08-11T03:24:19.504Z,19.27
2022-08-11T03:29:48.140Z,18.94
2022-08-11T03:34:55.136Z,17.09
2022-08-11T03:40:07.749Z,15.90
2022-08-11T03:45:42.485Z,15.08
2022-08-11T03:50:58.690Z,16.25
2022-08-11T03:56:11.753Z,19.25
2022-08-11T04:01:46.264Z,19.45
2022-08-11T04:07:20.407Z,17.31
2022-08-11T04:12:49.058Z,16.25
2022-08-11T04:18:29.490Z,15.68
2022-08-11T04:24:35.747Z,17.03
2022-08-11T04:30:03.592Z,20.13
2022-08-11T04:35:48.658Z,20.21
2022-08-11T04:41:33.441Z,18.28
2022-08-11T04:48:01.742Z,17.27
2022-08-11T04:53:38.773Z,16.72
2022-08-11T04:59:00.586Z,18.04
2022-08-11T05:04:40.764Z,21.05
2022-08-11T05:10:16.330Z,20.95
2022-08-11T05:16:19.037Z,19.45
2022-08-11T05:21:45.276Z,18.63
2022-08-11T05:27:13.591Z,18.27
2022-08-11T05:32:37.561Z,19.49
2022-08-11T05:38:06.277Z,22.34
2022-08-11T05:43:33.039Z,22.42
2022-08-11T05:48:56.319Z,20.44
2022-08-11T05:54:29.045Z,19.31
2022-08-11T05:59:34.527Z,20.32
2022-08-11T06:04:38.746Z,22.91
2022-08-11T06:09:44.897Z,22.99
2022-08-11T06:14:54.977Z,21.30
2022-08-11T06:20:07.021Z,20.33
2022-08-11T06:25:12.561Z,19.78
2022-08-11T06:30:16.263Z,19.50
2022-08-11T06:35:37.969Z,20.56
2022-08-11T06:41:15.624Z,23.58
2022-08-11T06:46:31.643Z,23.20
2022-08-11T06:51:38.643Z,21.75
2022-08-11T06:57:28.971Z,21.22
2022-08-11T07:02:50.168Z,20.97
2022-08-11T07:08:34.444Z,20.80
2022-08-11T07:13:59.565Z,20.73
2022-08-11T07:19:26.527Z,20.79
2022-08-11T07:25:02.490Z,20.90
2022-08-11T07:30:10.836Z,21.09
2022-08-11T07:35:20.953Z,21.25
2022-08-11T07:40:25.958Z,21.38
2022-08-11T07:45:49.368Z,21.50
2022-08-11T07:51:13.744Z,21.69
2022-08-11T07:56:21.828Z,21.93
2022-08-11T08:01:57.278Z,22.14
2022-08-11T08:07:23.401Z,22.31
2022-08-11T08:12:46.769Z,22.52
2022-08-11T08:18:09.506Z,22.73
2022-08-11T08:23:33.653Z,22.96
2022-08-11T08:28:37.856Z,23.16
2022-08-11T08:33:43.036Z,23.32
2022-08-11T08:38:54.357Z,23.48
2022-08-11T08:44:27.809Z,23.64
2022-08-11T08:49:50.942Z,23.85
2022-08-11T08:55:01.477Z,24.14
2022-08-11T09:00:08.911Z,24.28
2022-08-11T09:05:19.886Z,24.40
2022-08-11T09:10:23.951Z,24.61
2022-08-11T09:15:28.575Z,24.99
2022-08-11T09:20:35.441Z,25.35
2022-08-11T09:25:57.287Z,25.65
2022-08-11T09:31:02.889Z,25.45
2022-08-11T09:36:27.056Z,25.24
2022-08-11T09:42:01.249Z,25.08
2022-08-11T09:46:59.699Z,24.75
2022-08-11T09:52:09.857Z,24.44
2022-08-11T09:57:32.317Z,24.54
2022-08-11T10:02:46.387Z,24.68
2022-08-11T10:07:53.724Z,25.11
2022-08-11T10:13:04.568Z,25.12
2022-08-11T10:18:35.017Z,25.19
2022-08-11T10:24:00.319Z,25.59
2022-08-11T10:29:33.438Z,25.95
2022-08-11T10:34:54.477Z,26.35
2022-08-11T10:40:02.186Z,26.74
2022-08-11T10:45:27.206Z,26.63
2022-08-11T10:50:50.588Z,26.28
2022-08-11T10:56:13.767Z,25.86
2022-08-11T11:01:16.918Z,25.56
2022-08-11T11:06:51.223Z,25.54
2022-08-11T11:12:40.232Z,25.74
2022-08-11T11:18:02.159Z,25.80
2022-08-11T11:23:11.609Z,25.87
2022-08-11T11:29:10.628Z,26.24
2022-08-11T11:34:52.808Z,26.90
2022-08-11T11:39:58.624Z,27.65
2022-08-11T11:45:04.635Z,28.06
2022-08-11T11:50:09.528Z,28.12
2022-08-11T11:55:13.216Z,27.98
2022-08-11T12:00:38.259Z,27.62
2022-08-11T12:05:45.272Z,27.09
2022-08-11T12:11:12.960Z,27.00
2022-08-11T12:16:33.684Z,27.22
2022-08-11T12:23:27.789Z,28.11
2022-08-11T12:28:33.528Z,28.58
2022-08-11T12:33:41.270Z,28.78
2022-08-11T12:38:51.862Z,29.21
2022-08-11T12:44:24.771Z,29.41
2022-08-11T12:49:54.275Z,29.56
2022-08-11T12:55:12.538Z,29.92
2022-08-11T13:00:37.151Z,30.08
2022-08-11T13:05:45.156Z,30.11
2022-08-11T13:11:11.208Z,30.24
2022-08-11T13:16:15.447Z,30.29
2022-08-11T13:21:20.539Z,30.52
2022-08-11T13:26:36.941Z,30.97
2022-08-11T13:31:50.138Z,31.66
2022-08-11T13:36:58.217Z,32.28
2022-08-11T13:42:03.868Z,32.17
2022-08-11T13:47:10.393Z,31.35
2022-08-11T13:52:17.043Z,31.00
2022-08-11T13:58:19.331Z,30.87
2022-08-11T14:02:50.847Z,30.80
2022-08-11T14:08:02.101Z,30.86
2022-08-11T14:13:42.290Z,30.83
2022-08-11T14:18:54.611Z,30.95
2022-08-11T14:24:01.259Z,31.09
2022-08-11T14:29:21.157Z,31.35
2022-08-11T14:34:30.002Z,31.61
2022-08-11T14:39:38.611Z,31.42
2022-08-11T14:45:15.531Z,31.30
2022-08-11T14:50:27.136Z,31.20
2022-08-11T14:55:55.132Z,31.20
2022-08-11T15:01:32.845Z,31.08
2022-08-11T15:06:37.496Z,31.02
2022-08-11T15:12:00.970Z,30.78
2022-08-11T15:17:12.065Z,30.20
2022-08-11T15:22:34.321Z,30.21
2022-08-11T15:27:59.438Z,30.31
2022-08-11T15:33:27.329Z,30.30
2022-08-11T15:38:36.435Z,30.50
2022-08-11T15:44:08.189Z,30.60
2022-08-11T15:50:13.196Z,30.73
2022-08-11T15:55:02.405Z,30.88
2022-08-11T16:00:26.553Z,30.68
2022-08-11T16:05:57.750Z,30.48
2022-08-11T16:11:03.925Z,30.17
2022-08-11T16:16:15.343Z,30.03
2022-08-11T16:21:36.205Z,29.99
2022-08-11T16:27:10.384Z,29.87
2022-08-11T16:32:17.897Z,29.60
2022-08-11T16:37:42.197Z,29.64
2022-08-11T16:43:11.066Z,29.61
2022-08-11T16:48:35.263Z,29.62
2022-08-11T16:54:00.090Z,29.79
2022-08-11T16:59:18.401Z,29.81
2022-08-11T17:05:11.269Z,29.63
2022-08-11T17:10:56.489Z,29.54
2022-08-11T17:16:09.481Z,29.16
2022-08-11T17:22:01.547Z,28.71
2022-08-11T17:27:08.299Z,28.11
2022-08-11T17:32:56.030Z,27.50
2022-08-11T17:38:18.474Z,26.84
2022-08-11T17:43:40.418Z,26.13
2022-08-11T17:48:47.881Z,25.44
2022-08-11T17:54:24.360Z,24.95
2022-08-11T17:59:49.306Z,24.57
2022-08-11T18:04:55.033Z,24.30
2022-08-11T18:10:18.565Z,24.06
2022-08-11T18:15:50.062Z,23.81
2022-08-11T18:21:18.746Z,23.57
2022-08-11T18:26:44.398Z,23.42
2022-08-11T18:32:09.151Z,23.21
2022-08-11T18:37:38.107Z,23.03
2022-08-11T18:43:03.753Z,22.88
2022-08-11T18:48:40.247Z,22.66
2022-08-11T18:54:12.105Z,22.44
2022-08-11T18:59:41.455Z,22.23
2022-08-11T19:05:05.068Z,22.02
2022-08-11T19:10:28.736Z,21.91
2022-08-11T19:15:52.188Z,21.77
2022-08-11T19:21:15.978Z,21.60
2022-08-11T19:26:39.367Z,21.47
2022-08-11T19:32:03.573Z,21.38
2022-08-11T19:37:28.434Z,21.24
2022-08-11T19:42:51.801Z,21.13
2022-08-11T19:48:31.314Z,21.05
2022-08-11T19:53:55.733Z,20.92
2022-08-11T19:59:19.015Z,20.80
2022-08-11T20:04:41.775Z,20.71
2022-08-11T20:10:06.867Z,20.64
2022-08-11T20:15:30.992Z,20.48
2022-08-11T20:20:54.295Z,20.33
2022-08-11T20:26:34.836Z,20.22
2022-08-11T20:31:58.059Z,20.10
2022-08-11T20:37:23.101Z,20.01
2022-08-11T20:42:47.968Z,19.95
2022-08-11T20:55:01.591Z,19.72
2022-08-11T21:00:39.376Z,19.60
2022-08-11T21:06:10.581Z,19.63
2022-08-11T21:11:36.295Z,19.64
2022-08-11T21:17:04.493Z,19.63
2022-08-11T21:23:05.605Z,19.55
2022-08-11T21:28:30.977Z,19.52
2022-08-11T21:33:54.158Z,19.49
2022-08-11T21:39:16.994Z,19.46
2022-08-11T21:44:42.877Z,19.41
2022-08-11T21:50:06.459Z,19.33
2022-08-11T21:55:29.852Z,19.22
2022-08-11T22:00:53.211Z,19.09
2022-08-11T22:06:16.718Z,19.01
2022-08-11T22:11:40.099Z,20.26
2022-08-11T22:17:01.844Z,23.26
2022-08-11T22:22:26.246Z,23.65
2022-08-11T22:27:49.537Z,21.93
2022-08-11T22:33:12.717Z,20.88
2022-08-11T22:38:39.645Z,20.18
2022-08-11T22:44:01.838Z,19.65
2022-08-11T22:49:25.693Z,19.26
2022-08-11T22:54:49.376Z,18.96
2022-08-11T23:00:13.166Z,18.70
2022-08-11T23:05:37.884Z,19.94
2022-08-11T23:11:01.466Z,22.81
2022-08-11T23:16:24.027Z,23.00
2022-08-11T23:21:48.243Z,21.20
2022-08-11T23:27:10.900Z,20.09
2022-08-11T23:32:33.561Z,19.42
2022-08-11T23:37:56.228Z,18.87
2022-08-11T23:43:22.881Z,18.40
2022-08-11T23:48:50.058Z,19.56
2022-08-11T23:54:12.320Z,22.48
2022-08-11T23:59:36.201Z,22.23
